Time;durP1;ratioP1;P1;durP2;ratioP2;P2;SDS_P1;SDS_P2;PMS_P1;PMS_P2;Temp;Humidity;BMP_temperature;BMP_pressure;BME280_temperature;BME280_humidity;BME280_pressure;Samples;Min_cycle;Max_cycle;Signal;HPM_P1;HPM_P2
2023/01/16 00:01:07;;;;;;;2.28;1.05;;;;;;;;;;5944389;22;5566256;-72
2023/01/16 00:03:38;;;;;;;3.70;1.27;;;;;;;;;;6073106;23;20037;-74
2023/01/16 00:06:37;;;;;;;6.85;1.17;;;;;;;;;;6008522;23;20170;-72
2023/01/16 00:19:37;;;;;;;5.18;1.15;;;;;;;;;;5879984;23;20020;-72
2023/01/16 00:22:08;;;;;;;1.60;0.90;;;;;;;;;;5895829;23;20029;-71
2023/01/16 00:24:38;;;;;;;3.17;1.00;;;;;;;;;;5954295;23;20113;-73
2023/01/16 00:27:05;;;;;;;3.33;1.38;;;;;;;;;;5964031;23;20139;-72
2023/01/16 00:29:35;;;;;;;4.97;1.27;;;;;;;;;;5976624;23;20455;-72
2023/01/16 00:32:05;;;;;;;1.48;0.90;;;;;;;;;;5957320;23;20027;-72
2023/01/16 00:59:17;;;;;;;2.97;1.30;;;;;;;;;;5033351;27;20532;-72
2023/01/16 01:04:11;;;;;;;3.05;1.60;;;;;;;;;;4918276;28;20047;-71
2023/01/16 01:06:38;;;;;;;4.13;1.70;;;;;;;;;;4919541;28;20141;-69
2023/01/16 01:09:06;;;;;;;6.45;1.98;;;;;;;;;;4919584;28;20106;-73
2023/01/16 01:11:33;;;;;;;3.30;1.75;;;;;;;;;;4916264;28;20054;-73
2023/01/16 01:14:00;;;;;;;3.67;1.73;;;;;;;;;;4934809;28;20080;-75
2023/01/16 01:16:32;;;;;;;3.72;1.83;;;;;;;;;;4979392;28;20054;-72
2023/01/16 01:19:10;;;;;;;;;;;;;;;;;;;;;
2023/01/16 01:22:11;;;;;;;5.15;2.38;;;;;;;;;;4924648;28;20156;-73
2023/01/16 01:24:38;;;;;;;4.55;2.10;;;;;;;;;;4984622;28;20061;-74
2023/01/16 01:27:17;;;;;;;6.90;2.22;;;;;;;;;;4970549;28;20064;-72
2023/01/16 01:30:05;;;;;;;4.63;2.38;;;;;;;;;;4951682;28;20085;-72
2023/01/16 01:50:37;;;;;;;5.25;2.33;;;;;;;;;;6136922;22;1688759;-73
2023/01/16 01:53:07;;;;;;;5.07;2.72;;;;;;;;;;6100279;23;20031;-72
2023/01/16 01:55:44;;;;;;;6.70;2.53;;;;;;;;;;6093924;23;20025;-72
2023/01/16 01:58:21;;;;;;;6.85;2.50;;;;;;;;;;6083586;23;20031;-72
2023/01/16 02:00:57;;;;;;;10.93;2.47;;;;;;;;;;6039349;23;20305;-72
2023/01/16 02:03:33;;;;;;;6.43;2.85;;;;;;;;;;6048527;23;20096;-73
2023/01/16 02:06:11;;;;;;;5.93;2.72;;;;;;;;;;6047654;23;20171;-73
2023/01/16 02:08:44;;;;;;;6.53;2.53;;;;;;;;;;6053137;23;20029;-73
2023/01/16 02:19:17;;;;;;;7.57;2.10;;;;;;;;;;5082151;28;20080;-70
2023/01/16 02:22:01;;;;;;;4.65;2.25;;;;;;;;;;5032317;28;20056;-71
2023/01/16 02:24:41;;;;;;;4.10;2.25;;;;;;;;;;5024706;28;20043;-73
2023/01/16 02:27:59;;;;;;;4.70;1.95;;;;;;;;;;4993787;28;20480;-72
2023/01/16 02:30:39;;;;;;;5.43;2.10;;;;;;;;;;4971803;28;20060;-72
2023/01/16 02:33:10;;;;;;;5.00;1.95;;;;;;;;;;5032253;28;20064;-72
2023/01/16 02:35:56;;;;;;;5.90;2.08;;;;;;;;;;5023704;28;20064;-74
2023/01/16 02:38:35;;;;;;;9.02;2.30;;;;;;;;;;5045347;28;20095;-73
2023/01/16 02:41:09;;;;;;;4.45;2.20;;;;;;;;;;4981778;28;20232;-72
2023/01/16 02:48:51;;;;;;;5.15;1.77;;;;;;;;;;4997837;27;20557;-73
2023/01/16 02:56:50;;;;;;;4.00;1.67;;;;;;;;;;5003960;28;20424;-71
2023/01/16 02:59:25;;;;;;;3.60;1.48;;;;;;;;;;4969886;28;20081;-71
2023/01/16 03:02:00;;;;;;;6.18;1.77;;;;;;;;;;4975740;28;20057;-71
2023/01/16 03:04:27;;;;;;;;;;;;;;;;;;4924118;28;20136;-72
2023/01/16 03:06:59;;;;;;;4.35;1.60;;;;;;;;;;4988108;28;19928;-72
2023/01/16 03:09:33;;;;;;;2.85;1.45;;;;;;;;;;4971283;28;20077;-71
2023/01/16 03:15:12;;;;;;;4.45;1.73;;;;;;;;;;4957105;28;20050;-72
2023/01/16 03:17:49;;;;;;;3.42;1.70;;;;;;;;;;4983859;28;20061;-72
2023/01/16 03:20:40;;;;;;;3.28;1.60;;;;;;;;;;4965630;28;20255;-72
2023/01/16 03:23:14;;;;;;;3.07;1.60;;;;;;;;;;4988162;28;20053;-71
2023/01/16 03:25:55;;;;;;;2.08;1.30;;;;;;;;;;4981800;28;20054;-71
2023/01/16 03:28:30;;;;;;;3.30;1.50;;;;;;;;;;5031890;28;20069;-71
2023/01/16 03:31:07;;;;;;;2.17;1.25;;;;;;;;;;4969292;28;20058;-71
2023/01/16 03:33:43;;;;;;;3.38;1.40;;;;;;;;;;4975894;28;20088;-71
2023/01/16 03:36:11;;;;;;;2.60;1.40;;;;;;;;;;4981981;28;22112;-71
2023/01/16 03:38:47;;;;;;;3.35;1.48;;;;;;;;;;4974418;28;20077;-72
2023/01/16 03:41:16;;;;;;;3.15;1.20;;;;;;;;;;4971727;28;20057;-71
2023/01/16 03:43:46;;;;;;;3.03;1.45;;;;;;;;;;4941420;28;20236;-71
2023/01/16 03:46:41;;;;;;;2.85;1.40;;;;;;;;;;4945414;28;20073;-72
2023/01/16 03:49:20;;;;;;;4.15;1.30;;;;;;;;;;4989767;28;20054;-71
2023/01/16 03:51:51;;;;;;;4.50;1.33;;;;;;;;;;4996525;28;20183;-71
2023/01/16 03:54:25;;;;;;;7.45;1.30;;;;;;;;;;4987266;28;20066;-71
2023/01/16 03:56:57;;;;;;;5.88;1.40;;;;;;;;;;4989577;28;20144;-71
2023/01/16 03:59:36;;;;;;;3.47;1.83;;;;;;;;;;4975144;28;20097;-70
2023/01/16 04:02:08;;;;;;;2.78;0.95;;;;;;;;;;4996448;28;20053;-71
2023/01/16 04:04:49;;;;;;;4.20;1.35;;;;;;;;;;4951386;28;20054;-71
2023/01/16 04:07:22;;;;;;;2.78;1.05;;;;;;;;;;4939091;28;20055;-72
2023/01/16 04:13:03;;;;;;;2.25;1.05;;;;;;;;;;4947475;28;20050;-71
2023/01/16 04:15:42;;;;;;;2.75;1.00;;;;;;;;;;4922717;28;20109;-72
2023/01/16 04:18:12;;;;;;;4.88;1.13;;;;;;;;;;4970949;28;20061;-71
2023/01/16 04:20:58;;;;;;;2.10;0.80;;;;;;;;;;5001211;28;20053;-70
2023/01/16 04:23:39;;;;;;;4.45;1.40;;;;;;;;;;4944880;28;20122;-70
2023/01/16 04:26:20;;;;;;;2.15;0.95;;;;;;;;;;4928356;28;20057;-72
2023/01/16 04:28:54;;;;;;;3.05;1.17;;;;;;;;;;4959939;28;20041;-71
2023/01/16 04:32:03;;;;;;;1.67;0.93;;;;;;;;;;5007063;28;20107;-71
2023/01/16 04:34:32;;;;;;;5.13;1.35;;;;;;;;;;4921328;28;20060;-72
2023/01/16 04:37:52;;;;;;;2.83;1.10;;;;;;;;;;4965684;28;20136;-72
2023/01/16 04:40:30;;;;;;;3.42;1.10;;;;;;;;;;4833402;29;20060;-71
2023/01/16 04:46:12;;;;;;;4.10;1.00;;;;;;;;;;4799471;29;20052;-72
2023/01/16 04:48:47;;;;;;;2.20;0.82;;;;;;;;;;4908434;28;20055;-72
2023/01/16 04:51:22;;;;;;;2.47;0.73;;;;;;;;;;4959647;28;20062;-71
2023/01/16 04:53:51;;;;;;;2.28;0.90;;;;;;;;;;4968059;28;20200;-72
2023/01/16 04:56:40;;;;;;;3.10;0.90;;;;;;;;;;4974356;28;20057;-71
2023/01/16 04:59:12;;;;;;;3.05;1.08;;;;;;;;;;4934257;28;20054;-71
2023/01/16 05:04:42;;;;;;;2.35;0.98;;;;;;;;;;4895228;28;20043;-71
2023/01/16 05:07:26;;;;;;;2.13;0.80;;;;;;;;;;4981990;28;20088;-72
2023/01/16 05:09:58;;;;;;;2.50;0.90;;;;;;;;;;4954873;28;20062;-71
2023/01/16 05:12:41;;;;;;;;;;;;;;;;;;;;;
2023/01/16 05:15:20;;;;;;;3.20;0.60;;;;;;;;;;4968539;28;20069;-71
2023/01/16 05:18:19;;;;;;;7.05;1.40;;;;;;;;;;4973433;28;20056;-71
2023/01/16 05:21:24;;;;;;;4.20;1.10;;;;;;;;;;4983555;28;20053;-72
2023/01/16 05:23:55;;;;;;;5.93;0.90;;;;;;;;;;4954467;28;20256;-71
2023/01/16 05:30:09;;;;;;;;;;;;;;;;;;4988494;28;20049;-71
2023/01/16 05:32:49;;;;;;;2.60;1.03;;;;;;;;;;4944824;28;20024;-71
2023/01/16 05:35:53;;;;;;;3.00;0.90;;;;;;;;;;4941525;28;20312;-71
2023/01/16 05:38:24;;;;;;;2.00;0.80;;;;;;;;;;4918278;29;20082;-71
2023/01/16 05:43:59;;;;;;;5.63;0.90;;;;;;;;;;4912473;28;20059;-71
2023/01/16 05:46:27;;;;;;;6.65;0.90;;;;;;;;;;4955742;28;20120;-71
2023/01/16 05:48:59;;;;;;;4.40;0.80;;;;;;;;;;4979591;28;20131;-71
2023/01/16 05:51:36;;;;;;;2.72;1.00;;;;;;;;;;4954056;28;20351;-72
2023/01/16 05:54:15;;;;;;;3.42;0.93;;;;;;;;;;4912654;28;20148;-73
2023/01/16 05:57:12;;;;;;;2.13;0.90;;;;;;;;;;4948145;28;20054;-72
2023/01/16 06:03:51;;;;;;;4.65;0.77;;;;;;;;;;4847612;29;20083;-72
2023/01/16 07:02:23;;;;;;;3.72;1.00;;;;;;;;;;6200962;22;1515459;-74
2023/01/16 07:04:50;;;;;;;;;;;;;;;;;;6066993;23;20179;-73
2023/01/16 07:07:17;;;;;;;3.67;1.13;;;;;;;;;;5987196;23;19920;-72
2023/01/16 07:09:44;;;;;;;2.45;0.68;;;;;;;;;;6148614;23;20264;-72
2023/01/16 07:12:11;;;;;;;3.08;0.77;;;;;;;;;;6148763;23;20104;-74
2023/01/16 07:22:56;;;;;;;1.60;0.60;;;;;;;;;;6123562;23;20035;-72
2023/01/16 07:32:42;;;;;;;4.45;1.00;;;;;;;;;;5957254;23;20018;-72
2023/01/16 07:39:57;;;;;;;1.05;0.60;;;;;;;;;;5053106;27;1408830;-73
2023/01/16 07:42:24;;;;;;;;;;;;;;;;;;5007468;28;20052;-71
2023/01/16 07:50:02;;;;;;;4.80;1.30;;;;;;;;;;5050602;27;20497;-75
2023/01/16 07:52:57;;;;;;;1.70;0.52;;;;;;;;;;4945342;28;20129;-75
2023/01/16 07:58:09;;;;;;;2.10;0.60;;;;;;;;;;4984012;27;20541;-74
2023/01/16 08:00:36;;;;;;;3.53;0.98;;;;;;;;;;4910857;28;20078;-71
2023/01/16 08:03:03;;;;;;;2.88;0.85;;;;;;;;;;4926620;28;20047;-75
2023/01/16 08:10:46;;;;;;;2.80;0.85;;;;;;;;;;4996859;27;20522;-73
2023/01/16 08:13:16;;;;;;;3.58;0.90;;;;;;;;;;4935255;28;20053;-74
2023/01/16 08:18:25;;;;;;;3.47;0.98;;;;;;;;;;5019175;27;20497;-75
2023/01/16 08:20:52;;;;;;;7.07;1.10;;;;;;;;;;4917133;28;20050;-75
2023/01/16 08:28:30;;;;;;;1.63;0.90;;;;;;;;;;5027044;27;20422;-72
2023/01/16 08:31:08;;;;;;;1.08;0.70;;;;;;;;;;4931737;28;20231;-75
2023/01/16 08:38:57;;;;;;;4.32;1.33;;;;;;;;;;5016693;27;1554789;-74
2023/01/16 08:52:21;;;;;;;2.80;0.88;;;;;;;;;;5041909;27;20444;-74
2023/01/16 08:54:50;;;;;;;2.55;0.80;;;;;;;;;;4898091;28;20051;-74
2023/01/16 08:59:58;;;;;;;2.28;0.75;;;;;;;;;;5027168;27;1546893;-75
2023/01/16 09:02:29;;;;;;;2.17;0.75;;;;;;;;;;4964111;28;20056;-77
2023/01/16 09:10:10;;;;;;;7.80;0.82;;;;;;;;;;5070095;27;20579;-74
2023/01/16 09:20:43;;;;;;;3.92;0.80;;;;;;;;;;5041843;27;20488;-76
2023/01/16 09:23:14;;;;;;;3.38;0.77;;;;;;;;;;4935057;28;20038;-75
2023/01/16 09:31:00;;;;;;;4.05;0.80;;;;;;;;;;5013642;27;20446;-73
2023/01/16 09:33:29;;;;;;;3.75;1.20;;;;;;;;;;4883455;28;20125;-73
2023/01/16 09:43:35;;;;;;;1.88;0.90;;;;;;;;;;5074197;27;20139;-73
2023/01/16 09:44:04;;;;;;;3.30;0.88;;;;;;;;;;4959070;28;20046;-73
2023/01/16 09:58:34;;;;;;;2.05;0.85;;;;;;;;;;5020725;27;20421;-74
2023/01/16 10:00:11;;;;;;;1.77;0.77;;;;;;;;;;5016026;27;20467;-72
2023/01/16 10:02:38;;;;;;;2.67;0.88;;;;;;;;;;4967924;28;20160;-71
2023/01/16 10:05:13;;;;;;;4.43;0.77;;;;;;;;;;4942316;28;20053;-72
2023/01/16 10:15:19;;;;;;;6.30;0.93;;;;;;;;;;4991900;27;20478;-72
2023/01/16 10:17:51;;;;;;;2.50;0.90;;;;;;;;;;4944407;28;20070;-72
2023/01/16 10:20:27;;;;;;;1.80;0.70;;;;;;;;;;4982991;28;20044;-73
2023/01/16 10:22:58;;;;;;;2.45;0.68;;;;;;;;;;4968026;28;20041;-73
2023/01/16 10:25:43;;;;;;;2.00;0.80;;;;;;;;;;4929065;28;20043;-73
2023/01/16 10:31:13;;;;;;;2.33;0.70;;;;;;;;;;5032648;27;20464;-73
2023/01/16 10:33:42;;;;;;;1.10;0.80;;;;;;;;;;4970857;28;20140;-73
2023/01/16 10:36:18;;;;;;;1.25;0.60;;;;;;;;;;4994100;28;20063;-74
2023/01/16 10:49:25;;;;;;;1.40;0.65;;;;;;;;;;4835817;29;20048;-73
2023/01/16 10:54:30;;;;;;;3.45;0.77;;;;;;;;;;4932608;28;20045;-72
2023/01/16 10:57:03;;;;;;;2.28;0.80;;;;;;;;;;4966146;28;20034;-72
2023/01/16 11:02:17;;;;;;;4.93;0.80;;;;;;;;;;4974536;27;20459;-71
2023/01/16 11:04:44;;;;;;;2.28;0.70;;;;;;;;;;4913752;28;20051;-72
2023/01/16 11:07:18;;;;;;;3.20;0.90;;;;;;;;;;4947065;28;20045;-72
2023/01/16 11:09:49;;;;;;;1.20;0.52;;;;;;;;;;4974118;28;20049;-72
2023/01/16 11:20:49;;;;;;;0.80;0.50;;;;;;;;;;4915665;28;20057;-71
2023/01/16 11:23:21;;;;;;;2.05;0.70;;;;;;;;;;4952670;28;20050;-71
2023/01/16 11:25:51;;;;;;;1.48;0.70;;;;;;;;;;4935348;28;20140;-71
2023/01/16 11:28:22;;;;;;;2.75;0.82;;;;;;;;;;4950945;28;20116;-71
2023/01/16 11:30:52;;;;;;;1.92;0.65;;;;;;;;;;4993512;28;20171;-71
2023/01/16 11:33:22;;;;;;;0.77;0.60;;;;;;;;;;4965527;28;20049;-71
2023/01/16 11:35:52;;;;;;;1.45;0.65;;;;;;;;;;4972806;28;20080;-72
2023/01/16 11:38:19;;;;;;;0.88;0.57;;;;;;;;;;4927080;28;20078;-71
2023/01/16 11:40:47;;;;;;;0.98;0.63;;;;;;;;;;4984902;28;20045;-72
2023/01/16 11:46:07;;;;;;;1.45;0.70;;;;;;;;;;4974929;28;20315;-73
2023/01/16 11:48:38;;;;;;;0.63;0.50;;;;;;;;;;4955114;28;20046;-73
2023/01/16 11:51:10;;;;;;;3.22;0.75;;;;;;;;;;4936310;28;20063;-73
2023/01/16 11:56:20;;;;;;;1.60;0.57;;;;;;;;;;4875010;28;20079;-72
2023/01/16 12:04:24;;;;;;;2.50;0.60;;;;;;;;;;5016866;28;20087;-71
2023/01/16 12:06:57;;;;;;;0.75;0.57;;;;;;;;;;5010336;28;20121;-71
2023/01/16 12:09:38;;;;;;;1.45;0.70;;;;;;;;;;4975670;28;20052;-70
2023/01/16 12:15:02;;;;;;;1.95;0.60;;;;;;;;;;5009351;28;20040;-71
2023/01/16 12:17:38;;;;;;;0.73;0.50;;;;;;;;;;4989108;28;20057;-71
2023/01/16 12:20:14;;;;;;;1.77;0.77;;;;;;;;;;5002174;28;20056;-71
2023/01/16 12:22:52;;;;;;;1.20;0.60;;;;;;;;;;5026800;28;20160;-71
2023/01/16 12:25:23;;;;;;;1.17;0.60;;;;;;;;;;5008843;28;20368;-71
2023/01/16 12:27:58;;;;;;;2.83;0.50;;;;;;;;;;5016400;28;20136;-70
2023/01/16 12:30:29;;;;;;;4.18;0.80;;;;;;;;;;4949698;28;20057;-70
2023/01/16 12:33:07;;;;;;;0.80;0.60;;;;;;;;;;5007078;28;20080;-70
2023/01/16 12:35:39;;;;;;;2.05;0.80;;;;;;;;;;4983768;28;20499;-71
2023/01/16 12:38:10;;;;;;;1.20;0.40;;;;;;;;;;4975992;28;20050;-70
2023/01/16 12:43:17;;;;;;;0.75;0.55;;;;;;;;;;4965617;28;20064;-70
2023/01/16 12:43:54;;;;;;;0.60;0.50;;;;;;;;;;5021971;28;20051;-71
2023/01/16 12:46:25;;;;;;;0.35;0.35;;;;;;;;;;5055485;28;20089;-70
2023/01/16 12:49:00;;;;;;;1.80;0.75;;;;;;;;;;4983282;28;20067;-70
2023/01/16 12:51:36;;;;;;;1.48;0.85;;;;;;;;;;5006941;28;20222;-70
2023/01/16 12:54:29;;;;;;;0.60;0.50;;;;;;;;;;5022554;28;20132;-71
2023/01/16 12:57:08;;;;;;;1.35;0.60;;;;;;;;;;5012662;28;20127;-71
2023/01/16 12:59:34;;;;;;;;;;;;;;;;;;4996420;28;21095;-70
2023/01/16 13:02:05;;;;;;;1.80;0.50;;;;;;;;;;5013602;28;19920;-70
2023/01/16 13:04:38;;;;;;;4.80;0.57;;;;;;;;;;5001109;28;20049;-70
2023/01/16 13:07:09;;;;;;;0.68;0.50;;;;;;;;;;5019201;28;20061;-71
2023/01/16 13:09:39;;;;;;;0.50;0.40;;;;;;;;;;4981880;28;20051;-70
2023/01/16 13:14:56;;;;;;;0.95;0.40;;;;;;;;;;4949160;28;20070;-70
2023/01/16 13:17:25;;;;;;;;;;;;;;;;;;4938975;28;20054;-70
2023/01/16 13:19:54;;;;;;;1.05;0.60;;;;;;;;;;5010389;28;20010;-70
2023/01/16 13:22:28;;;;;;;0.88;0.60;;;;;;;;;;4981775;28;20451;-71
2023/01/16 13:24:56;;;;;;;1.58;0.50;;;;;;;;;;5054298;28;20048;-71
2023/01/16 13:27:26;;;;;;;1.30;0.57;;;;;;;;;;4971115;28;20626;-71
2023/01/16 13:29:55;;;;;;;0.95;0.55;;;;;;;;;;4952378;28;20049;-71
2023/01/16 13:32:30;;;;;;;1.52;0.52;;;;;;;;;;4963576;28;20602;-71
2023/01/16 13:35:03;;;;;;;1.15;0.60;;;;;;;;;;4976703;28;20054;-71
2023/01/16 13:37:40;;;;;;;0.68;0.40;;;;;;;;;;5001171;28;20177;-71
2023/01/16 13:40:19;;;;;;;1.00;0.55;;;;;;;;;;4974492;28;20145;-71
2023/01/16 13:42:51;;;;;;;0.88;0.47;;;;;;;;;;4976848;28;20057;-71
2023/01/16 13:48:08;;;;;;;0.98;0.63;;;;;;;;;;4989800;28;20057;-71
2023/01/16 13:50:37;;;;;;;0.35;0.30;;;;;;;;;;4974665;28;20126;-71
2023/01/16 13:53:08;;;;;;;1.65;0.73;;;;;;;;;;5007491;28;20056;-72
2023/01/16 13:55:37;;;;;;;1.02;0.52;;;;;;;;;;4971431;28;20132;-71
2023/01/16 13:58:08;;;;;;;1.77;0.52;;;;;;;;;;4952462;28;20056;-71
2023/01/16 14:00:45;;;;;;;0.95;0.50;;;;;;;;;;4924036;28;20110;-71
2023/01/16 14:03:20;;;;;;;0.77;0.47;;;;;;;;;;4988443;28;20058;-72
2023/01/16 14:05:52;;;;;;;0.63;0.40;;;;;;;;;;4997917;28;20056;-71
2023/01/16 14:11:23;;;;;;;1.05;0.40;;;;;;;;;;5012570;28;20147;-71
2023/01/16 14:13:50;;;;;;;1.00;0.50;;;;;;;;;;4988332;28;20061;-72
2023/01/16 14:16:35;;;;;;;3.03;0.70;;;;;;;;;;5012927;28;20057;-72
2023/01/16 14:19:03;;;;;;;0.90;0.55;;;;;;;;;;4995794;28;20073;-72
2023/01/16 14:21:40;;;;;;;2.05;0.70;;;;;;;;;;4978242;28;20059;-73
2023/01/16 14:24:10;;;;;;;1.42;0.68;;;;;;;;;;5002692;28;20064;-72
2023/01/16 14:26:42;;;;;;;0.88;0.50;;;;;;;;;;4975733;28;20054;-73
2023/01/16 14:29:15;;;;;;;0.95;0.60;;;;;;;;;;4941833;28;20173;-71
2023/01/16 14:31:45;;;;;;;1.10;0.50;;;;;;;;;;4992843;28;20148;-71
2023/01/16 14:34:16;;;;;;;0.52;0.40;;;;;;;;;;4958845;28;20065;-71
2023/01/16 14:36:46;;;;;;;1.63;0.68;;;;;;;;;;4930053;28;20065;-73
2023/01/16 14:39:30;;;;;;;1.42;0.60;;;;;;;;;;4898438;28;20062;-74
2023/01/16 14:56:24;;;;;;;1.08;0.57;;;;;;;;;;4976558;28;20053;-71
2023/01/16 14:58:53;;;;;;;0.75;0.38;;;;;;;;;;4974796;28;20507;-75
2023/01/16 15:04:32;;;;;;;2.28;0.55;;;;;;;;;;4945820;28;20063;-73
2023/01/16 15:07:03;;;;;;;2.00;0.60;;;;;;;;;;4957642;28;20062;-73
2023/01/16 15:12:14;;;;;;;3.17;0.80;;;;;;;;;;5036610;27;1543127;-71
2023/01/16 15:14:51;;;;;;;1.23;0.60;;;;;;;;;;5028747;28;20048;-72
2023/01/16 15:23:09;;;;;;;1.85;0.77;;;;;;;;;;5031468;28;20048;-70
2023/01/16 15:26:11;;;;;;;3.92;0.90;;;;;;;;;;5058166;28;20055;-70
2023/01/16 15:28:48;;;;;;;1.95;0.80;;;;;;;;;;4943899;28;20071;-71
2023/01/16 15:31:17;;;;;;;2.65;0.85;;;;;;;;;;4982710;28;20083;-70
2023/01/16 15:33:45;;;;;;;1.35;0.60;;;;;;;;;;5036379;28;20060;-70
2023/01/16 15:36:17;;;;;;;1.52;0.70;;;;;;;;;;5034921;28;20059;-70
2023/01/16 15:38:45;;;;;;;3.53;0.75;;;;;;;;;;5051415;28;20152;-70
2023/01/16 15:41:13;;;;;;;1.50;0.80;;;;;;;;;;5051352;28;20123;-69
2023/01/16 15:46:36;;;;;;;1.40;0.88;;;;;;;;;;5027536;28;20064;-72
2023/01/16 15:49:07;;;;;;;2.85;0.90;;;;;;;;;;5028288;28;20048;-74
2023/01/16 15:51:34;;;;;;;0.75;0.70;;;;;;;;;;4963166;28;20411;-73
2023/01/16 15:54:02;;;;;;;1.25;0.73;;;;;;;;;;5006287;28;20194;-73
2023/01/16 15:56:29;;;;;;;;;;;;;;;;;;5028872;28;20079;-73
2023/01/16 15:58:57;;;;;;;1.48;0.80;;;;;;;;;;4982686;28;19925;-72
2023/01/16 16:04:07;;;;;;;2.67;0.70;;;;;;;;;;5035030;27;20547;-71
2023/01/16 16:06:38;;;;;;;0.90;0.65;;;;;;;;;;5016146;28;20176;-72
2023/01/16 16:09:05;;;;;;;1.40;0.73;;;;;;;;;;4995426;28;20057;-71
2023/01/16 16:11:52;;;;;;;3.35;0.82;;;;;;;;;;5003332;28;20073;-71
2023/01/16 16:20:17;;;;;;;1.92;0.73;;;;;;;;;;4942699;28;20065;-71
2023/01/16 16:27:59;;;;;;;2.17;0.80;;;;;;;;;;5055256;27;20526;-74
2023/01/16 16:30:27;;;;;;;2.13;0.95;;;;;;;;;;4912225;28;20065;-73
2023/01/16 16:32:55;;;;;;;1.08;0.68;;;;;;;;;;4938294;28;20055;-73
2023/01/16 16:42:58;;;;;;;2.40;0.80;;;;;;;;;;5036981;27;20527;-73
2023/01/16 16:45:26;;;;;;;1.67;0.80;;;;;;;;;;4989386;28;20041;-73
2023/01/16 16:53:22;;;;;;;1.10;0.70;;;;;;;;;;5025239;28;20423;-71
2023/01/16 16:55:52;;;;;;;1.90;0.85;;;;;;;;;;4963218;28;20065;-71
2023/01/16 16:58:20;;;;;;;1.17;0.70;;;;;;;;;;4943746;28;20051;-71
2023/01/16 17:03:29;;;;;;;1.33;0.80;;;;;;;;;;4992306;27;20568;-73
2023/01/16 17:05:58;;;;;;;1.60;0.80;;;;;;;;;;4946065;28;20871;-73
2023/01/16 17:08:28;;;;;;;2.05;0.80;;;;;;;;;;4888989;28;20504;-72
2023/01/16 17:10:55;;;;;;;1.45;0.70;;;;;;;;;;4885803;28;20063;-73
2023/01/16 17:13:24;;;;;;;1.55;0.75;;;;;;;;;;4909700;28;20047;-75
2023/01/16 17:15:52;;;;;;;1.20;0.77;;;;;;;;;;4912777;28;20050;-73
2023/01/16 17:18:20;;;;;;;;;;;;;;;;;;4910343;28;20069;-75
2023/01/16 17:23:41;;;;;;;0.63;0.52;;;;;;;;;;4998357;27;20501;-72
2023/01/16 17:26:11;;;;;;;4.22;0.75;;;;;;;;;;4913627;28;20085;-72
2023/01/16 17:38:22;;;;;;;1.75;1.00;;;;;;;;;;4866610;29;20080;-74
2023/01/16 17:46:21;;;;;;;1.83;0.80;;;;;;;;;;4959992;28;20057;-74
2023/01/16 17:48:48;;;;;;;1.60;0.82;;;;;;;;;;5036625;28;20206;-74
2023/01/16 17:54:04;;;;;;;1.35;0.82;;;;;;;;;;5014551;27;20520;-75
2023/01/16 17:56:31;;;;;;;1.02;0.80;;;;;;;;;;4947289;28;20058;-76
2023/01/16 18:03:21;;;;;;;3.33;1.40;;;;;;;;;;5038139;27;20401;-72
2023/01/16 18:05:49;;;;;;;2.35;1.20;;;;;;;;;;5004399;28;20099;-74
2023/01/16 18:08:16;;;;;;;4.93;2.03;;;;;;;;;;4967712;28;20092;-75
2023/01/16 18:18:36;;;;;;;3.45;1.73;;;;;;;;;;4926274;28;20059;-74
2023/01/16 18:23:48;;;;;;;5.72;1.83;;;;;;;;;;5048401;27;20675;-72
2023/01/16 18:26:15;;;;;;;3.35;1.80;;;;;;;;;;4996843;28;20059;-73
2023/01/16 18:28:42;;;;;;;4.78;1.90;;;;;;;;;;4988463;28;20152;-74
2023/01/16 18:36:12;;;;;;;3.30;1.67;;;;;;;;;;5015438;27;20514;-75
2023/01/16 19:06:53;;;;;;;6.28;2.17;;;;;;;;;;4986530;27;20457;-75
2023/01/16 19:09:26;;;;;;;8.52;2.58;;;;;;;;;;4872765;29;20060;-75
2023/01/16 19:14:31;;;;;;;6.25;2.20;;;;;;;;;;5029755;27;1462778;-73
2023/01/16 19:17:16;;;;;;;6.55;2.60;;;;;;;;;;4971533;28;20051;-73
2023/01/16 19:25:45;;;;;;;5.15;2.47;;;;;;;;;;5050076;27;20395;-74
2023/01/16 19:28:20;;;;;;;6.68;2.70;;;;;;;;;;4940531;28;20557;-74
2023/01/16 19:36:12;;;;;;;4.85;2.10;;;;;;;;;;5086049;27;20130;-75
2023/01/16 19:38:40;;;;;;;4.47;2.28;;;;;;;;;;4950886;28;20150;-75
2023/01/16 19:46:42;;;;;;;4.75;2.33;;;;;;;;;;5075742;27;20128;-72
2023/01/16 19:49:18;;;;;;;4.82;1.98;;;;;;;;;;4969473;28;20424;-73
2023/01/16 19:51:50;;;;;;;5.47;1.85;;;;;;;;;;4919707;28;20050;-72
2023/01/16 20:14:53;;;;;;;4.07;1.80;;;;;;;;;;5897853;23;20050;-73
2023/01/16 20:28:08;;;;;;;4.75;2.00;;;;;;;;;;4983910;27;20133;-74
2023/01/16 20:35:59;;;;;;;5.78;2.38;;;;;;;;;;5045307;27;1571450;-73
2023/01/16 20:38:25;;;;;;;4.72;2.00;;;;;;;;;;4978818;28;20177;-75
2023/01/16 20:46:09;;;;;;;4.18;1.77;;;;;;;;;;5005657;27;20488;-74
2023/01/16 20:48:36;;;;;;;4.53;1.90;;;;;;;;;;4907692;28;20055;-75
2023/01/16 20:51:09;;;;;;;4.28;1.98;;;;;;;;;;4894025;29;20058;-74
2023/01/16 20:56:27;;;;;;;4.43;1.55;;;;;;;;;;5061989;27;20413;-73
2023/01/16 20:58:56;;;;;;;3.28;1.45;;;;;;;;;;4983634;28;20070;-75
2023/01/16 21:01:24;;;;;;;;;;;;;;;;;;4961154;28;20140;-73
2023/01/16 21:06:41;;;;;;;4.88;1.65;;;;;;;;;;5008449;27;20504;-72
2023/01/16 21:09:10;;;;;;;3.92;1.73;;;;;;;;;;4924106;28;20056;-74
2023/01/16 23:00:15;;;;;;;1.65;0.80;;;;;;;;;;5026065;27;20545;-75
2023/01/16 23:08:00;;;;;;;1.98;0.85;;;;;;;;;;5088376;27;20531;-74
2023/01/16 23:10:28;;;;;;;2.85;1.10;;;;;;;;;;4997638;28;20063;-74
